Nearby METAR Reports

 

EBAW - Antwerpen, Belgium
Distance from station: NW 22km
Updated: 2020-01-27 13:50
Mostly cloudy
Mostly cloudy
 Wind from SW
Wind: SW 17 km/h
Temperature: 10°C
Wind Chill: 8°C
Dew Point: 6°C
Humidity: 76%
Barometer: 1004 hPa
Clouds: Mostly cloudy
Visibility: 10 km
Cloud details: Few Clouds 427 m
Mostly cloudy 549 m
2020/01/27 12:50 EBAW 271250Z 22009KT 190V250 9999 FEW014 BKN018 10/06 Q1004 NOSIG
EBBR - Brussel, Belgium
Distance from station: SW 24km
Updated: 2020-01-27 13:50
Mostly cloudy
Mostly cloudy
 Wind from SW
Wind: SW 19 km/h
Temperature: 9°C
Wind Chill: 6°C
Dew Point: 7°C
Humidity: 87%
Barometer: 1004 hPa
Clouds: Mostly cloudy
Visibility: 10 km
Cloud details: Mostly cloudy 457 m
2020/01/27 12:50 EBBR 271250Z 22010KT 9999 BKN015 09/07 Q1004 NOSIG
 
EBDT - Schaffen, Belgium
Distance from station: ESE 26km
Updated: 2020-01-27 13:55
Mostly cloudy
Mostly cloudy
 Wind from SSW
Wind: SSW 11 km/h
Temperature: 9°C
Wind Chill: 7°C
Dew Point: 7°C
Humidity: 87%
Barometer: 1005 hPa
Clouds: Mostly cloudy
Visibility: 10 km
Cloud details: Partly cloudy 457 m
Mostly cloudy 914 m
Mostly cloudy 3353 m
2020/01/27 12:55 EBDT 271255Z 20006KT 9999 SCT015 BKN030 BKN110 09/07 Q1005 WHT WHT TEMPO BLU
EBBE - Beauvechain, Belgium
Distance from station: S 36km
Updated: 2020-01-27 13:55
Mostly cloudy
Mostly cloudy
 Wind from SSW
Wind: SSW 22 km/h
Temperature: 9°C
Wind Chill: 6°C
Dew Point: 6°C
Humidity: 82%
Barometer: 1005 hPa
Clouds: Mostly cloudy
Visibility: 10 km
Cloud details: Few Clouds 457 m
Mostly cloudy 610 m
Mostly cloudy 884 m
2020/01/27 12:55 EBBE 271255Z 21012KT 9999 FEW015 BKN020 BKN029 09/06 Q1005 WHT WHT TEMPO GRN
 
EHWO - Woensdrecht Rnla, Netherlands
Distance from station: NNW 50km
Updated: 2020-01-27 13:55
Overcast
Overcast
 Wind from SW
Wind: SW 17 km/h
Temperature: 9°C
Wind Chill: 7°C
Dew Point: 7°C
Humidity: 87%
Barometer: 1003 hPa
Clouds: Overcast
Visibility: 10 km
Cloud details: Few Clouds 579 m
Partly cloudy 732 m
Overcast 3962 m
2020/01/27 12:55 EHWO 271255Z AUTO 22009KT 180V260 9999 FEW019 SCT024 OVC130 09/07 Q1003 WHT 21010KT 9999 FEW015 BKN040 BKN140 TEMPO BKN015 BKN040 BKN140
EBBL - Kleine-Brogel, Belgium
Distance from station: ENE 54km
Updated: 2020-01-27 13:55
Mostly cloudy
Mostly cloudy
 Wind from SSW
Wind: SSW 13 km/h
Temperature: 9°C
Wind Chill: 7°C
Dew Point: 8°C
Humidity: 94%
Barometer: 1005 hPa
Clouds: Mostly cloudy
Visibility: 10 km
Cloud details: Few Clouds 305 m
Partly cloudy 427 m
Mostly cloudy 610 m
2020/01/27 12:55 EBBL 271255Z 21007KT 9999 FEW010 SCT014 BKN020 09/08 Q1005 GRN WHT TEMPO GRN
 
EHGR - Gilze-Rijen Rnla, Netherlands
Distance from station: NNE 57km
Updated: 2020-01-27 13:55
Overcast
Overcast
 Wind from SSW
Wind: SSW 13 km/h
Temperature: 10°C
Wind Chill: 8°C
Dew Point: 7°C
Humidity: 82%
Barometer: 1004 hPa
Clouds: Overcast
Visibility: 10 km
Cloud details: Mostly cloudy 457 m
Overcast 579 m
2020/01/27 12:55 EHGR 271255Z AUTO 21007KT 130V240 9999 BKN015 OVC019 10/07 Q1004 WHT 20009KT 9999 FEW012 SCT015 BKN030
EHEH - Eindhoven Rnlafb, Netherlands
Distance from station: NE 63km
Updated: 2020-01-27 13:55
Mostly cloudy
Mostly cloudy
 Wind from SSW
Wind: SSW 15 km/h
Temperature: 9°C
Wind Chill: 7°C
Dew Point: 8°C
Humidity: 94%
Barometer: 1004 hPa
Clouds: Mostly cloudy
Visibility: 10 km
Cloud details: Few Clouds 396 m
Partly cloudy 1250 m
Mostly cloudy 1372 m
2020/01/27 12:55 EHEH 271255Z AUTO 20008KT 9999 FEW013 SCT041 BKN045 09/08 Q1004 BLU 20010KT 9999 SCT010 BKN015 TEMPO BKN010 BKN014
 
EBCI - Charleroi, Belgium
Distance from station: SSW 70km
Updated: 2020-01-27 13:50
Partly cloudy
Partly cloudy
 Wind from SSW
Wind: SSW 17 km/h
Temperature: 8°C
Wind Chill: 5°C
Dew Point: 5°C
Humidity: 82%
Barometer: 1005 hPa
Clouds: Partly cloudy
Visibility: 10 km
Cloud details: Few Clouds 244 m
Partly cloudy 335 m
2020/01/27 12:50 EBCI 271250Z 21009KT 9999 FEW008 SCT011 08/05 Q1005 TEMPO 4000 RA BKN008
EBLG - Bierset, Belgium
Distance from station: SE 72km
Updated: 2020-01-27 13:50
Light rain, Mostly cloudy
Light rain, Mostly cloudy
 Wind from S
Wind: S 20 km/h
Temperature: 7°C
Wind Chill: 4°C
Dew Point: 5°C
Humidity: 87%
Barometer: 1005 hPa
Summary: Light rain
Clouds: Mostly cloudy
Visibility: 8 km
Cloud details: Few Clouds 274 m
Mostly cloudy 792 m
2020/01/27 12:50 EBLG 271250Z 18011KT 8000 -RA FEW009 BKN026 07/05 Q1005 TEMPO 4000 BKN012